createdAt,value
2022-12-05T00:00:20.781Z,16.55
2022-12-05T00:02:51.088Z,17.95
2022-12-05T00:05:24.086Z,16.50
2022-12-05T00:07:54.452Z,16.13
2022-12-05T00:10:25.311Z,15.80
2022-12-05T00:12:55.854Z,15.50
2022-12-05T00:15:26.377Z,16.27
2022-12-05T00:17:56.737Z,16.20
2022-12-05T00:20:29.587Z,15.63
2022-12-05T00:22:59.923Z,16.48
2022-12-05T00:25:30.365Z,15.10
2022-12-05T00:28:00.740Z,15.97
2022-12-05T00:30:31.090Z,16.87
2022-12-05T00:33:01.548Z,15.70
2022-12-05T00:35:36.763Z,16.35
2022-12-05T00:38:07.093Z,15.80
2022-12-05T00:40:39.159Z,15.97
2022-12-05T00:43:09.470Z,15.73
2022-12-05T00:45:39.783Z,14.90
2022-12-05T00:48:10.223Z,16.07
2022-12-05T00:50:43.213Z,15.97
2022-12-05T00:53:13.416Z,15.38
2022-12-05T00:55:43.733Z,16.90
2022-12-05T00:58:13.993Z,15.50
2022-12-05T01:00:44.312Z,15.63
2022-12-05T01:03:14.650Z,15.90
2022-12-05T01:05:47.544Z,14.63
2022-12-05T01:08:18.014Z,15.52
2022-12-05T01:10:57.245Z,15.40
2022-12-05T01:13:28.612Z,14.88
2022-12-05T01:15:59.029Z,14.38
2022-12-05T01:18:30.365Z,15.55
2022-12-05T01:21:03.442Z,13.95
2022-12-05T01:23:33.761Z,14.35
2022-12-05T01:26:08.626Z,14.90
2022-12-05T01:28:41.062Z,13.90
2022-12-05T01:31:15.179Z,13.75
2022-12-05T01:33:45.563Z,13.70
2022-12-05T01:36:19.045Z,13.23
2022-12-05T01:38:49.802Z,13.27
2022-12-05T01:41:23.777Z,13.90
2022-12-05T01:44:00.173Z,13.00
2022-12-05T01:46:32.598Z,12.38
2022-12-05T01:49:08.559Z,12.35
2022-12-05T01:51:44.674Z,12.73
2022-12-05T01:54:16.179Z,13.55
2022-12-05T01:56:51.441Z,12.18
2022-12-05T01:59:24.985Z,12.05
2022-12-05T02:01:55.255Z,11.50
2022-12-05T02:04:25.780Z,11.60
2022-12-05T02:06:59.108Z,12.18
2022-12-05T02:09:29.420Z,11.75
2022-12-05T02:12:04.102Z,12.17
2022-12-05T02:14:41.322Z,11.02
2022-12-05T02:17:22.792Z,11.57
2022-12-05T02:20:25.261Z,11.85
2022-12-05T02:23:30.988Z,11.00
2022-12-05T02:26:37.170Z,10.88
2022-12-05T02:29:55.092Z,11.00
2022-12-05T02:32:44.340Z,10.48
2022-12-05T02:35:24.707Z,10.30
2022-12-05T02:38:05.646Z,10.43
2022-12-05T02:40:44.653Z,11.07
2022-12-05T02:43:21.620Z,10.65
2022-12-05T02:45:57.556Z,9.95
2022-12-05T02:48:32.333Z,10.75
2022-12-05T02:51:05.190Z,11.38
2022-12-05T02:53:38.395Z,10.20
2022-12-05T02:56:10.651Z,10.07
2022-12-05T02:58:48.819Z,11.23
2022-12-05T03:01:19.989Z,10.88
2022-12-05T03:06:27.220Z,10.32
2022-12-05T03:09:02.261Z,11.38
2022-12-05T03:11:42.892Z,10.98
2022-12-05T03:14:18.216Z,11.52
2022-12-05T03:16:54.931Z,10.68
2022-12-05T03:19:38.200Z,12.50
2022-12-05T03:22:14.073Z,10.18
2022-12-05T03:24:45.355Z,11.10
2022-12-05T03:27:25.762Z,11.60
2022-12-05T03:30:02.145Z,48.10
2022-12-05T03:32:40.821Z,20.90
2022-12-05T03:35:22.691Z,15.48
2022-12-05T03:37:57.612Z,11.10
2022-12-05T03:40:35.678Z,32.50
2022-12-05T03:43:15.030Z,12.02
2022-12-05T03:45:52.310Z,10.65
2022-12-05T03:48:30.324Z,10.50
2022-12-05T03:51:06.659Z,15.93
2022-12-05T03:53:44.707Z,26.42
2022-12-05T03:56:21.919Z,12.07
2022-12-05T03:58:58.638Z,11.27
2022-12-05T04:01:32.841Z,11.30
2022-12-05T04:04:11.499Z,12.27
2022-12-05T04:06:48.911Z,46.17
2022-12-05T04:09:25.968Z,15.70
2022-12-05T04:12:04.336Z,13.00
2022-12-05T04:14:40.243Z,12.77
2022-12-05T04:17:13.709Z,11.32
2022-12-05T04:20:01.239Z,12.40
2022-12-05T04:22:35.088Z,11.63
2022-12-05T04:25:22.289Z,11.25
2022-12-05T04:27:58.039Z,11.30
2022-12-05T04:30:33.378Z,11.93
2022-12-05T04:33:11.186Z,11.35
2022-12-05T04:35:48.027Z,11.98
2022-12-05T04:38:27.396Z,11.90
2022-12-05T04:41:02.314Z,12.23
2022-12-05T04:43:38.364Z,13.00
2022-12-05T04:46:13.060Z,11.77
2022-12-05T04:48:46.352Z,12.30
2022-12-05T04:51:21.909Z,12.07
2022-12-05T04:53:59.723Z,12.45
2022-12-05T04:56:33.608Z,12.05
2022-12-05T04:59:03.958Z,12.02
2022-12-05T05:01:40.386Z,12.03
2022-12-05T05:04:16.855Z,12.70
2022-12-05T05:06:47.363Z,14.40
2022-12-05T05:09:20.474Z,18.42
2022-12-05T05:11:50.945Z,22.63
2022-12-05T05:14:21.325Z,24.30
2022-12-05T05:16:51.638Z,26.20
2022-12-05T05:19:21.985Z,21.20
2022-12-05T05:21:52.529Z,28.37
2022-12-05T05:24:26.502Z,29.75
2022-12-05T05:26:57.646Z,29.45
2022-12-05T05:29:28.145Z,29.75
2022-12-05T05:31:58.383Z,28.63
2022-12-05T05:34:28.882Z,29.00
2022-12-05T05:36:59.358Z,28.50
2022-12-05T05:39:32.432Z,27.67
2022-12-05T05:42:02.771Z,26.92
2022-12-05T05:44:33.037Z,27.83
2022-12-05T05:47:03.434Z,26.47
2022-12-05T05:49:34.119Z,27.23
2022-12-05T05:52:04.522Z,27.83
2022-12-05T05:54:37.403Z,27.27
2022-12-05T05:57:07.958Z,28.10
2022-12-05T05:59:38.457Z,26.98
2022-12-05T06:02:09.931Z,25.70
2022-12-05T06:04:40.534Z,27.52
2022-12-05T06:07:10.856Z,27.13
2022-12-05T06:09:43.822Z,27.67
2022-12-05T06:12:14.631Z,26.67
2022-12-05T06:14:45.098Z,27.30
2022-12-05T06:17:15.589Z,27.88
2022-12-05T06:19:46.177Z,25.77
2022-12-05T06:22:16.879Z,27.13
2022-12-05T06:24:49.925Z,27.27
2022-12-05T06:27:20.196Z,26.70
2022-12-05T06:29:50.571Z,27.27
2022-12-05T06:32:20.880Z,26.43
2022-12-05T06:34:51.149Z,27.60
2022-12-05T06:37:21.487Z,29.77
2022-12-05T06:39:55.083Z,27.30
2022-12-05T06:42:25.445Z,27.02
2022-12-05T06:44:55.703Z,30.10
2022-12-05T06:47:26.072Z,26.80
2022-12-05T06:49:56.714Z,26.90
2022-12-05T06:52:27.307Z,27.25
2022-12-05T06:55:00.278Z,28.98
2022-12-05T06:57:32.045Z,27.10
2022-12-05T07:00:24.795Z,28.08
2022-12-05T07:02:53.456Z,27.92
2022-12-05T07:05:23.909Z,27.23
2022-12-05T07:07:54.334Z,27.55
2022-12-05T07:10:27.302Z,27.95
2022-12-05T07:12:57.682Z,27.50
2022-12-05T07:15:28.027Z,28.00
2022-12-05T07:17:58.319Z,26.73
2022-12-05T07:20:43.125Z,28.77
2022-12-05T07:23:18.908Z,28.00
2022-12-05T07:25:51.827Z,26.77
2022-12-05T07:28:22.210Z,29.10
2022-12-05T07:30:52.682Z,28.08
2022-12-05T07:33:22.962Z,26.27
2022-12-05T07:35:53.292Z,28.07
2022-12-05T07:38:23.593Z,26.73
2022-12-05T07:40:56.555Z,27.53
2022-12-05T07:43:27.221Z,28.98
2022-12-05T07:45:57.572Z,28.45
2022-12-05T07:48:27.902Z,28.87
2022-12-05T07:50:58.233Z,26.57
2022-12-05T07:53:28.530Z,26.73
2022-12-05T07:56:03.191Z,29.17
2022-12-05T07:58:34.175Z,26.58
2022-12-05T08:01:11.251Z,28.65
2022-12-05T08:03:41.918Z,26.50
2022-12-05T08:06:15.410Z,27.15
2022-12-05T08:08:49.989Z,27.65
2022-12-05T08:11:26.688Z,27.38
2022-12-05T08:13:57.810Z,26.33
2022-12-05T08:19:03.431Z,25.08
2022-12-05T08:21:34.067Z,25.60
2022-12-05T08:24:06.716Z,26.83
2022-12-05T08:26:40.670Z,26.05
2022-12-05T08:29:13.516Z,27.25
2022-12-05T08:31:47.295Z,25.63
2022-12-05T08:34:18.729Z,25.77
2022-12-05T08:36:49.291Z,24.90
2022-12-05T08:39:22.473Z,24.73
2022-12-05T08:41:55.339Z,24.58
2022-12-05T08:44:25.686Z,26.02
2022-12-05T08:46:56.211Z,23.95
2022-12-05T08:49:26.531Z,23.60
2022-12-05T08:51:56.905Z,23.67
2022-12-05T08:54:27.184Z,25.00
2022-12-05T08:57:00.121Z,23.47
2022-12-05T08:59:30.601Z,23.85
2022-12-05T09:02:01.083Z,22.88
2022-12-05T09:04:31.373Z,20.60
2022-12-05T09:07:04.770Z,20.33
2022-12-05T09:09:35.556Z,17.92
2022-12-05T09:12:08.950Z,15.55
2022-12-05T09:14:39.299Z,13.90
2022-12-05T09:17:09.595Z,11.53
2022-12-05T09:19:39.908Z,10.37
2022-12-05T09:22:10.233Z,10.10
2022-12-05T09:24:40.901Z,8.73
2022-12-05T09:27:13.901Z,8.32
2022-12-05T09:29:44.478Z,8.38
2022-12-05T09:32:15.072Z,7.35
2022-12-05T09:34:45.688Z,7.35
2022-12-05T09:37:38.248Z,7.40
2022-12-05T09:40:08.275Z,6.73
2022-12-05T09:42:57.491Z,6.38
2022-12-05T09:45:32.349Z,6.15
2022-12-05T09:48:09.531Z,5.85
2022-12-05T09:50:52.203Z,6.18
2022-12-05T09:53:31.989Z,5.85
2022-12-05T09:56:08.120Z,6.05
2022-12-05T09:58:48.094Z,8.23
2022-12-05T10:01:41.706Z,9.95
2022-12-05T10:04:44.939Z,6.30
2022-12-05T10:07:25.337Z,5.95
2022-12-05T10:10:20.369Z,5.67
2022-12-05T10:13:08.540Z,5.47
2022-12-05T10:15:47.839Z,6.30
2022-12-05T10:18:32.959Z,5.93
2022-12-05T10:21:09.187Z,5.97
2022-12-05T10:23:59.137Z,5.50
2022-12-05T10:26:33.942Z,5.85
2022-12-05T10:29:22.431Z,5.90
2022-12-05T10:32:04.569Z,5.00
2022-12-05T10:34:41.529Z,5.15
2022-12-05T10:37:20.646Z,5.22
2022-12-05T10:39:52.345Z,5.15
2022-12-05T10:42:28.582Z,5.40
2022-12-05T10:45:03.006Z,5.40
2022-12-05T10:47:37.214Z,6.22
2022-12-05T10:50:24.872Z,5.78
2022-12-05T10:52:56.791Z,6.03
2022-12-05T10:55:32.969Z,5.93
2022-12-05T10:58:17.785Z,6.30
2022-12-05T11:00:52.155Z,5.40
2022-12-05T11:03:30.725Z,5.00
2022-12-05T11:06:04.199Z,4.57
2022-12-05T11:09:03.163Z,5.05
2022-12-05T11:11:29.804Z,4.68
2022-12-05T11:14:03.943Z,4.68
2022-12-05T11:16:38.238Z,4.63
2022-12-05T11:19:30.663Z,5.20
2022-12-05T11:22:01.571Z,4.72
2022-12-05T11:24:34.720Z,4.93
2022-12-05T11:27:27.496Z,4.18
2022-12-05T11:30:02.527Z,4.35
2022-12-05T11:32:36.380Z,4.32
2022-12-05T11:35:28.931Z,4.70
2022-12-05T11:38:03.190Z,4.90
2022-12-05T11:40:42.280Z,4.78
2022-12-05T11:43:36.220Z,4.55
2022-12-05T11:46:24.952Z,6.20
2022-12-05T11:49:14.393Z,6.53
2022-12-05T11:51:54.155Z,6.30
2022-12-05T11:55:06.580Z,8.25
2022-12-05T11:58:02.273Z,7.45
2022-12-05T12:00:42.995Z,7.90
2022-12-05T12:04:05.961Z,7.97
2022-12-05T12:06:53.322Z,9.00
2022-12-05T12:09:41.042Z,9.07
2022-12-05T12:12:25.362Z,8.98
2022-12-05T12:15:11.108Z,8.82
2022-12-05T12:17:52.791Z,8.18
2022-12-05T12:20:37.477Z,9.40
2022-12-05T12:23:35.309Z,9.18
2022-12-05T12:26:15.483Z,8.80
2022-12-05T12:28:56.380Z,8.85
2022-12-05T12:31:58.115Z,8.90
2022-12-05T12:34:50.977Z,10.55
2022-12-05T12:37:30.999Z,8.90
2022-12-05T12:40:16.852Z,8.93
2022-12-05T12:42:59.265Z,9.40
2022-12-05T12:45:53.997Z,9.43
2022-12-05T12:48:43.355Z,9.43
2022-12-05T12:51:17.011Z,8.60
2022-12-05T12:54:03.496Z,9.55
2022-12-05T12:56:46.479Z,9.18
2022-12-05T12:59:35.624Z,11.18
2022-12-05T13:02:15.547Z,10.90
2022-12-05T13:04:53.255Z,9.50
2022-12-05T13:07:31.494Z,9.75
2022-12-05T13:10:07.109Z,9.57
2022-12-05T13:12:44.261Z,9.68
2022-12-05T13:15:19.930Z,9.73
2022-12-05T13:17:52.376Z,9.88
2022-12-05T13:20:26.164Z,10.75
2022-12-05T13:23:00.897Z,10.43
2022-12-05T13:25:39.078Z,10.68
2022-12-05T13:28:30.611Z,10.40
2022-12-05T13:31:05.913Z,10.82
2022-12-05T13:33:39.934Z,9.90
2022-12-05T13:36:26.328Z,10.65
2022-12-05T13:39:17.207Z,9.88
2022-12-05T13:42:02.670Z,10.10
2022-12-05T13:44:41.742Z,10.23
2022-12-05T13:47:29.646Z,10.05
2022-12-05T13:50:10.547Z,10.38
2022-12-05T13:52:49.332Z,9.95
2022-12-05T13:55:35.609Z,10.90
2022-12-05T13:58:07.538Z,9.55
2022-12-05T14:00:40.626Z,9.52
2022-12-05T14:03:20.683Z,10.00
2022-12-05T14:05:54.372Z,9.93
2022-12-05T14:08:57.195Z,12.57
2022-12-05T14:11:27.663Z,9.60
2022-12-05T14:14:04.348Z,8.85
2022-12-05T14:16:49.533Z,10.95
2022-12-05T14:20:08.083Z,8.15
2022-12-05T14:23:11.579Z,8.75
2022-12-05T14:26:08.699Z,8.73
2022-12-05T14:29:06.963Z,9.05
2022-12-05T14:31:53.859Z,7.85
2022-12-05T14:34:29.332Z,8.77
2022-12-05T14:37:04.535Z,9.15
2022-12-05T14:39:44.052Z,9.18
2022-12-05T14:42:38.445Z,9.57
2022-12-05T14:45:31.312Z,8.43
2022-12-05T14:48:06.423Z,8.65
2022-12-05T14:50:45.149Z,9.18
2022-12-05T14:53:28.843Z,10.30
2022-12-05T14:56:09.031Z,9.77
2022-12-05T14:58:46.637Z,10.07
2022-12-05T15:01:21.834Z,9.52
2022-12-05T15:04:21.317Z,8.82
2022-12-05T15:06:56.974Z,9.57
2022-12-05T15:09:59.779Z,8.90
2022-12-05T15:12:37.038Z,9.48
2022-12-05T15:15:17.587Z,9.32
2022-12-05T15:17:52.945Z,9.93
2022-12-05T15:20:40.781Z,10.07
2022-12-05T15:23:46.232Z,9.70
2022-12-05T15:29:19.000Z,9.15
2022-12-05T15:31:52.610Z,9.15
2022-12-05T15:34:30.146Z,15.60
2022-12-05T15:37:09.670Z,10.05
2022-12-05T15:39:56.935Z,9.20
2022-12-05T15:42:30.482Z,9.30
2022-12-05T15:45:21.806Z,9.65
2022-12-05T15:50:31.733Z,9.00
2022-12-05T15:53:08.672Z,10.07
2022-12-05T15:55:45.408Z,9.65
2022-12-05T15:58:26.385Z,9.60
2022-12-05T16:01:03.253Z,11.25
2022-12-05T16:03:48.499Z,10.57
2022-12-05T16:06:25.866Z,9.55
2022-12-05T16:09:00.648Z,10.25
2022-12-05T16:11:31.167Z,10.63
2022-12-05T16:14:06.159Z,10.77
2022-12-05T16:16:39.408Z,10.27
2022-12-05T16:19:17.702Z,10.95
2022-12-05T16:22:01.187Z,10.30
2022-12-05T16:24:41.849Z,11.77
2022-12-05T16:27:20.184Z,11.20
2022-12-05T16:29:50.544Z,10.55
2022-12-05T16:32:26.982Z,11.30
2022-12-05T16:34:57.367Z,14.63
2022-12-05T16:37:30.613Z,11.30
2022-12-05T16:40:03.561Z,10.32
2022-12-05T16:42:40.858Z,10.25
2022-12-05T16:45:41.483Z,10.63
2022-12-05T16:48:22.781Z,13.53
2022-12-05T16:50:55.879Z,11.25
2022-12-05T16:53:35.191Z,10.98
2022-12-05T16:56:11.151Z,10.98
2022-12-05T16:58:41.466Z,10.30
2022-12-05T17:01:20.700Z,10.37
2022-12-05T17:03:51.174Z,10.90
2022-12-05T17:06:23.340Z,10.77
2022-12-05T17:08:54.545Z,9.88
2022-12-05T17:11:31.024Z,8.75
2022-12-05T17:14:02.629Z,8.90
2022-12-05T17:16:33.062Z,7.65
2022-12-05T17:19:04.019Z,8.63
2022-12-05T17:21:36.643Z,8.18
2022-12-05T17:24:07.616Z,8.25
2022-12-05T17:26:40.614Z,7.38
2022-12-05T17:29:11.761Z,7.88
2022-12-05T17:34:21.271Z,5.68
2022-12-05T17:36:51.548Z,5.30
2022-12-05T17:39:27.868Z,5.13
2022-12-05T17:42:01.449Z,4.25
2022-12-05T17:44:31.987Z,4.70
2022-12-05T17:47:07.792Z,4.45
2022-12-05T17:49:38.535Z,4.18
2022-12-05T17:52:24.315Z,4.33
2022-12-05T17:54:54.644Z,3.88
2022-12-05T17:57:27.623Z,3.90
2022-12-05T17:59:58.199Z,3.15
2022-12-05T18:02:28.590Z,3.20
2022-12-05T18:04:59.503Z,3.07
2022-12-05T18:10:00.361Z,3.22
2022-12-05T18:12:33.335Z,3.40
2022-12-05T18:15:03.677Z,3.50
2022-12-05T18:17:34.298Z,3.43
2022-12-05T18:20:04.950Z,3.20
2022-12-05T18:22:35.474Z,2.95
2022-12-05T18:25:06.256Z,3.00
2022-12-05T18:27:40.146Z,2.83
2022-12-05T18:30:12.269Z,3.40
2022-12-05T18:32:42.561Z,3.45
2022-12-05T18:35:15.836Z,3.22
2022-12-05T18:37:46.105Z,3.00
2022-12-05T18:40:16.945Z,3.13
2022-12-05T18:42:49.871Z,3.70
2022-12-05T18:45:21.579Z,3.63
2022-12-05T18:47:54.685Z,3.50
2022-12-05T18:50:27.566Z,3.63
2022-12-05T18:52:58.579Z,3.70
2022-12-05T18:55:58.003Z,4.32
2022-12-05T18:58:22.674Z,3.88
2022-12-05T19:00:53.016Z,3.50
2022-12-05T19:03:23.364Z,3.83
2022-12-05T19:05:53.628Z,3.90
2022-12-05T19:08:24.531Z,4.30
2022-12-05T19:10:54.990Z,4.20
2022-12-05T19:13:28.017Z,4.10
2022-12-05T19:16:05.243Z,4.70
2022-12-05T19:18:35.927Z,5.60
2022-12-05T19:21:07.103Z,4.97
2022-12-05T19:26:10.726Z,4.70
2022-12-05T19:28:43.923Z,4.93
2022-12-05T19:31:17.427Z,4.15
2022-12-05T19:33:50.635Z,4.32
2022-12-05T19:36:23.605Z,4.30
2022-12-05T19:38:56.162Z,5.38
2022-12-05T19:41:29.573Z,4.53
2022-12-05T19:44:03.467Z,4.90
2022-12-05T19:46:34.956Z,4.28
2022-12-05T19:49:09.139Z,4.40
2022-12-05T19:51:40.081Z,4.28
2022-12-05T19:54:11.709Z,4.25
2022-12-05T19:56:42.644Z,5.25
2022-12-05T19:59:17.622Z,4.50
2022-12-05T20:01:48.059Z,4.30
2022-12-05T20:04:19.985Z,4.40
2022-12-05T20:06:52.515Z,4.47
2022-12-05T20:09:25.206Z,4.63
2022-12-05T20:11:56.255Z,4.43
2022-12-05T20:14:29.700Z,4.38
2022-12-05T20:17:00.050Z,4.30
2022-12-05T20:19:30.593Z,4.00
2022-12-05T20:22:00.912Z,4.60
2022-12-05T20:24:31.689Z,4.00
2022-12-05T20:27:02.191Z,4.50
2022-12-05T20:29:35.275Z,4.18
2022-12-05T20:32:05.561Z,4.28
2022-12-05T20:34:35.953Z,4.43
2022-12-05T20:37:06.320Z,4.47
2022-12-05T20:39:36.763Z,4.50
2022-12-05T20:42:07.472Z,7.20
2022-12-05T20:44:40.520Z,4.78
2022-12-05T20:47:10.846Z,4.00
2022-12-05T20:49:41.255Z,3.90
2022-12-05T20:52:11.623Z,4.60
2022-12-05T20:54:41.930Z,4.10
2022-12-05T20:57:12.511Z,3.57
2022-12-05T20:59:45.659Z,4.43
2022-12-05T21:02:16.074Z,4.53
2022-12-05T21:04:46.436Z,4.23
2022-12-05T21:07:16.773Z,4.33
2022-12-05T21:09:47.183Z,3.80
2022-12-05T21:12:17.410Z,4.30
2022-12-05T21:14:50.930Z,5.00
2022-12-05T21:17:21.984Z,3.67
2022-12-05T21:19:52.365Z,3.92
2022-12-05T21:22:22.717Z,4.17
2022-12-05T21:24:53.112Z,4.60
2022-12-05T21:27:23.565Z,3.80
2022-12-05T21:29:56.687Z,3.70
2022-12-05T21:32:27.113Z,4.25
2022-12-05T21:34:57.597Z,4.13
2022-12-05T21:37:27.970Z,3.92
2022-12-05T21:39:58.935Z,4.33
2022-12-05T21:42:29.517Z,4.30
2022-12-05T21:45:02.724Z,3.63
2022-12-05T21:47:33.178Z,3.42
2022-12-05T21:50:03.457Z,3.53
2022-12-05T21:52:39.551Z,3.33
2022-12-05T21:55:11.525Z,3.67
2022-12-05T21:57:41.993Z,3.70
2022-12-05T22:00:16.774Z,3.43
2022-12-05T22:02:47.190Z,3.13
2022-12-05T22:05:17.804Z,4.03
2022-12-05T22:07:48.232Z,3.80
2022-12-05T22:10:18.730Z,3.63
2022-12-05T22:12:49.186Z,3.22
2022-12-05T22:15:22.075Z,3.17
2022-12-05T22:17:52.305Z,3.17
2022-12-05T22:20:22.666Z,3.28
2022-12-05T22:22:52.997Z,3.10
2022-12-05T22:25:23.336Z,3.50
2022-12-05T22:27:53.611Z,3.30
2022-12-05T22:30:26.567Z,3.37
2022-12-05T22:32:57.259Z,3.80
2022-12-05T22:35:27.629Z,3.30
2022-12-05T22:37:57.976Z,3.03
2022-12-05T22:40:28.372Z,3.33
2022-12-05T22:42:58.613Z,3.20
2022-12-05T22:45:31.556Z,3.40
2022-12-05T22:48:02.005Z,3.28
2022-12-05T22:50:32.500Z,3.13
2022-12-05T22:53:03.095Z,3.38
2022-12-05T22:55:34.733Z,3.17
2022-12-05T22:58:05.067Z,3.00
2022-12-05T23:00:38.360Z,3.00
2022-12-05T23:03:09.594Z,3.35
2022-12-05T23:05:42.993Z,3.55
2022-12-05T23:08:14.711Z,3.00
2022-12-05T23:10:45.093Z,3.47
2022-12-05T23:13:15.521Z,3.93
2022-12-05T23:15:48.603Z,3.20
2022-12-05T23:18:18.917Z,3.55
2022-12-05T23:20:49.451Z,3.03
2022-12-05T23:23:20.144Z,3.20
2022-12-05T23:25:51.040Z,3.03
2022-12-05T23:28:21.366Z,3.22
2022-12-05T23:30:54.260Z,2.93
2022-12-05T23:33:24.659Z,3.05
2022-12-05T23:35:57.126Z,3.00
2022-12-05T23:38:27.741Z,3.00
2022-12-05T23:41:02.998Z,3.08
2022-12-05T23:43:35.173Z,2.95
2022-12-05T23:46:09.446Z,3.00
2022-12-05T23:48:40.177Z,3.30
2022-12-05T23:51:14.753Z,2.83
2022-12-05T23:53:47.429Z,3.40
2022-12-05T23:56:20.209Z,2.97
2022-12-05T23:58:50.723Z,2.75
